createdAt,value
2019-03-25T00:00:08.234Z,0.00
2019-03-25T00:01:08.242Z,0.00
2019-03-25T00:02:08.242Z,0.00
2019-03-25T00:03:08.353Z,0.00
2019-03-25T00:04:08.229Z,0.00
2019-03-25T00:05:08.259Z,0.00
2019-03-25T00:06:08.174Z,0.00
2019-03-25T00:07:08.183Z,0.00
2019-03-25T00:08:08.170Z,0.00
2019-03-25T00:09:08.196Z,0.00
2019-03-25T00:10:08.124Z,0.00
2019-03-25T00:11:08.127Z,0.00
2019-03-25T00:12:08.115Z,0.00
2019-03-25T00:13:08.092Z,0.00
2019-03-25T00:14:08.124Z,0.00
2019-03-25T00:15:08.105Z,0.00
2019-03-25T00:16:08.054Z,0.00
2019-03-25T00:17:08.050Z,0.00
2019-03-25T00:18:08.044Z,0.00
2019-03-25T00:19:08.053Z,0.00
2019-03-25T00:20:08.015Z,0.00
2019-03-25T00:21:08.003Z,0.00
2019-03-25T00:22:07.996Z,0.00
2019-03-25T00:23:07.990Z,0.00
2019-03-25T00:24:08.128Z,0.00
2019-03-25T00:25:07.956Z,0.00
2019-03-25T00:26:08.009Z,0.00
2019-03-25T00:27:08.023Z,0.00
2019-03-25T00:28:08.014Z,0.00
2019-03-25T00:29:08.119Z,0.00
2019-03-25T00:30:08.115Z,0.00
2019-03-25T00:31:07.955Z,0.00
2019-03-25T00:32:07.924Z,0.00
2019-03-25T00:33:07.897Z,0.00
2019-03-25T00:34:07.986Z,0.00
2019-03-25T00:35:07.958Z,0.00
2019-03-25T00:36:07.916Z,0.00
2019-03-25T00:37:07.905Z,0.00
2019-03-25T00:38:07.878Z,0.00
2019-03-25T00:39:07.896Z,0.00
2019-03-25T00:40:07.821Z,0.00
2019-03-25T00:41:07.906Z,0.00
2019-03-25T00:42:07.808Z,0.00
2019-03-25T00:43:17.405Z,0.00
2019-03-25T00:44:07.829Z,0.00
2019-03-25T00:45:17.967Z,0.00
2019-03-25T00:46:07.736Z,0.00
2019-03-25T00:47:16.038Z,0.00
2019-03-25T00:48:15.331Z,0.00
2019-03-25T00:49:07.749Z,0.00
2019-03-25T00:51:27.009Z,0.00
2019-03-25T00:52:34.387Z,0.00
2019-03-25T00:53:26.927Z,0.00
2019-03-25T00:54:35.488Z,0.00
2019-03-25T00:57:55.323Z,0.00
2019-03-25T00:59:04.007Z,0.00
2019-03-25T01:00:03.527Z,0.00
2019-03-25T01:02:11.663Z,0.00
2019-03-25T01:04:20.994Z,0.00
2019-03-25T01:05:20.971Z,0.00
2019-03-25T01:06:20.971Z,0.00
2019-03-25T01:07:20.992Z,0.00
2019-03-25T01:08:20.993Z,0.00
2019-03-25T01:09:20.948Z,0.00
2019-03-25T01:10:20.933Z,0.00
2019-03-25T01:11:20.905Z,0.00
2019-03-25T01:12:20.908Z,0.00
2019-03-25T01:13:27.944Z,0.00
2019-03-25T01:14:20.901Z,0.00
2019-03-25T01:15:28.410Z,0.00
2019-03-25T01:16:28.449Z,0.00
2019-03-25T01:17:28.429Z,0.00
2019-03-25T01:18:30.451Z,0.00
2019-03-25T01:19:27.934Z,0.00
2019-03-25T01:20:20.937Z,0.00
2019-03-25T01:21:20.805Z,0.00
2019-03-25T01:22:21.019Z,0.00
2019-03-25T01:23:28.350Z,0.00
2019-03-25T01:24:20.813Z,0.00
2019-03-25T01:25:28.339Z,0.00
2019-03-25T01:26:28.373Z,0.00
2019-03-25T01:27:20.767Z,0.00
2019-03-25T01:28:28.266Z,0.00
2019-03-25T01:29:20.762Z,0.00
2019-03-25T01:30:20.719Z,0.00
2019-03-25T01:31:20.696Z,0.00
2019-03-25T01:32:20.707Z,0.00
2019-03-25T01:33:20.656Z,0.00
2019-03-25T01:34:20.684Z,0.00
2019-03-25T01:35:20.664Z,0.00
2019-03-25T01:36:20.643Z,0.00
2019-03-25T01:37:20.636Z,0.00
2019-03-25T01:38:20.641Z,0.00
2019-03-25T01:39:20.603Z,0.00
2019-03-25T01:40:20.596Z,0.00
2019-03-25T01:41:20.566Z,0.00
2019-03-25T01:42:20.558Z,0.00
2019-03-25T01:43:20.578Z,0.00
2019-03-25T01:44:20.583Z,0.00
2019-03-25T01:45:20.531Z,0.00
2019-03-25T01:46:20.530Z,0.00
2019-03-25T01:47:20.499Z,0.00
2019-03-25T01:48:20.506Z,0.00
2019-03-25T01:49:30.320Z,0.00
2019-03-25T01:50:20.519Z,0.00
2019-03-25T01:51:28.044Z,0.00
2019-03-25T01:52:20.434Z,0.00
2019-03-25T01:53:20.431Z,0.00
2019-03-25T01:54:20.424Z,0.00
2019-03-25T01:55:20.442Z,0.00
2019-03-25T01:56:20.404Z,0.00
2019-03-25T01:57:20.396Z,0.00
2019-03-25T01:58:20.374Z,0.00
2019-03-25T01:59:20.382Z,0.00
2019-03-25T02:00:20.352Z,0.00
2019-03-25T02:01:20.357Z,0.00
2019-03-25T02:02:20.338Z,0.00
2019-03-25T02:03:20.365Z,0.00
2019-03-25T02:04:20.347Z,0.00
2019-03-25T02:05:20.288Z,0.00
2019-03-25T02:06:20.280Z,0.00
2019-03-25T02:07:20.267Z,0.00
2019-03-25T02:08:20.266Z,0.00
2019-03-25T02:09:20.276Z,0.00
2019-03-25T02:10:20.252Z,0.00
2019-03-25T02:11:22.227Z,0.00
2019-03-25T02:12:20.217Z,0.00
2019-03-25T02:13:20.215Z,0.00
2019-03-25T02:14:20.217Z,0.00
2019-03-25T02:15:20.183Z,0.00
2019-03-25T02:16:20.181Z,0.00
2019-03-25T02:17:20.159Z,0.00
2019-03-25T02:18:20.140Z,0.00
2019-03-25T02:19:20.167Z,0.00
2019-03-25T02:20:26.331Z,0.00
2019-03-25T02:21:21.104Z,0.00
2019-03-25T02:22:20.090Z,0.00
2019-03-25T02:23:20.096Z,0.00
2019-03-25T02:24:20.097Z,0.00
2019-03-25T02:25:25.223Z,0.00
2019-03-25T02:26:21.068Z,0.00
2019-03-25T02:27:27.631Z,0.00
2019-03-25T02:28:20.107Z,0.00
2019-03-25T02:29:20.067Z,0.00
2019-03-25T02:30:20.022Z,0.00
2019-03-25T02:31:19.989Z,0.00
2019-03-25T02:32:19.985Z,0.00
2019-03-25T02:33:20.000Z,0.00
2019-03-25T02:34:19.970Z,0.00
2019-03-25T02:35:19.972Z,0.00
2019-03-25T02:36:19.977Z,0.00
2019-03-25T02:37:19.985Z,0.00
2019-03-25T02:38:19.908Z,0.00
2019-03-25T02:39:20.031Z,0.00
2019-03-25T02:40:19.897Z,0.00
2019-03-25T02:41:19.887Z,0.00
2019-03-25T02:42:19.918Z,0.00
2019-03-25T02:43:19.856Z,0.00
2019-03-25T02:44:19.914Z,0.00
2019-03-25T02:45:19.833Z,0.00
2019-03-25T02:46:19.817Z,0.00
2019-03-25T02:47:19.830Z,0.00
2019-03-25T02:48:19.834Z,0.00
2019-03-25T02:49:19.811Z,0.00
2019-03-25T02:50:19.841Z,0.00
2019-03-25T02:51:19.769Z,0.00
2019-03-25T02:52:19.763Z,0.00
2019-03-25T02:53:19.768Z,0.00
2019-03-25T02:54:19.739Z,0.00
2019-03-25T02:55:19.729Z,0.00
2019-03-25T02:56:19.703Z,0.00
2019-03-25T02:57:19.701Z,0.00
2019-03-25T02:58:19.702Z,0.00
2019-03-25T02:59:19.675Z,0.00
2019-03-25T03:00:19.711Z,0.00
2019-03-25T03:01:19.654Z,0.00
2019-03-25T03:02:19.663Z,0.00
2019-03-25T03:03:19.643Z,0.00
2019-03-25T03:04:19.655Z,0.00
2019-03-25T03:05:19.613Z,0.00
2019-03-25T03:06:19.587Z,0.00
2019-03-25T03:07:19.611Z,0.00
2019-03-25T03:08:19.566Z,0.00
2019-03-25T03:09:19.576Z,0.00
2019-03-25T03:10:19.569Z,0.00
2019-03-25T03:11:19.550Z,0.00
2019-03-25T03:12:19.542Z,0.00
2019-03-25T03:13:19.519Z,0.00
2019-03-25T03:14:19.521Z,0.00
2019-03-25T03:15:19.507Z,0.00
2019-03-25T03:16:19.485Z,0.00
2019-03-25T03:17:19.488Z,0.00
2019-03-25T03:18:19.484Z,0.00
2019-03-25T03:19:19.472Z,0.00
2019-03-25T03:20:19.447Z,0.00
2019-03-25T03:21:19.413Z,0.00
2019-03-25T03:22:19.418Z,0.00
2019-03-25T03:23:19.393Z,0.00
2019-03-25T03:24:19.382Z,0.00
2019-03-25T03:25:19.381Z,0.00
2019-03-25T03:26:19.370Z,0.00
2019-03-25T03:27:19.353Z,0.00
2019-03-25T03:28:19.344Z,0.00
2019-03-25T03:29:19.352Z,0.00
2019-03-25T03:30:19.366Z,0.00
2019-03-25T03:31:19.318Z,0.00
2019-03-25T03:32:19.322Z,0.00
2019-03-25T03:33:19.343Z,0.00
2019-03-25T03:34:19.292Z,0.00
2019-03-25T03:35:19.275Z,0.00
2019-03-25T03:36:19.271Z,0.00
2019-03-25T03:37:19.246Z,0.00
2019-03-25T03:38:19.233Z,0.00
2019-03-25T03:39:19.257Z,0.00
2019-03-25T03:40:19.264Z,0.00
2019-03-25T03:41:19.191Z,0.00
2019-03-25T03:42:19.177Z,0.00
2019-03-25T03:43:19.228Z,0.00
2019-03-25T03:44:19.199Z,0.00
2019-03-25T03:45:19.170Z,0.00
2019-03-25T03:46:19.130Z,0.00
2019-03-25T03:47:19.150Z,0.00
2019-03-25T03:48:19.120Z,0.00
2019-03-25T03:49:19.125Z,0.00
2019-03-25T03:50:19.171Z,0.00
2019-03-25T03:51:19.079Z,0.00
2019-03-25T03:52:19.074Z,0.00
2019-03-25T03:53:19.072Z,0.00
2019-03-25T03:54:19.089Z,0.00
2019-03-25T03:55:19.030Z,0.00
2019-03-25T03:56:19.032Z,0.00
2019-03-25T03:57:19.011Z,0.00
2019-03-25T03:58:19.007Z,0.00
2019-03-25T03:59:18.993Z,0.00
2019-03-25T04:00:19.004Z,0.00
2019-03-25T04:01:19.004Z,0.00
2019-03-25T04:02:18.951Z,0.00
2019-03-25T04:03:18.947Z,0.00
2019-03-25T04:04:18.947Z,0.00
2019-03-25T04:05:18.925Z,0.00
2019-03-25T04:06:18.941Z,0.00
2019-03-25T04:07:18.896Z,0.00
2019-03-25T04:08:18.892Z,0.00
2019-03-25T04:09:18.893Z,0.00
2019-03-25T04:10:18.887Z,0.00
2019-03-25T04:11:18.905Z,0.00
2019-03-25T04:12:18.866Z,0.00
2019-03-25T04:13:18.822Z,0.00
2019-03-25T04:14:18.814Z,0.00
2019-03-25T04:15:18.810Z,0.00
2019-03-25T04:16:18.827Z,0.00
2019-03-25T04:17:18.775Z,0.00
2019-03-25T04:18:18.816Z,0.00
2019-03-25T04:19:18.755Z,0.00
2019-03-25T04:20:18.792Z,0.00
2019-03-25T04:21:18.764Z,0.00
2019-03-25T04:22:18.739Z,0.00
2019-03-25T04:23:18.725Z,0.00
2019-03-25T04:24:18.722Z,0.00
2019-03-25T04:25:18.701Z,0.00
2019-03-25T04:26:28.666Z,0.00
2019-03-25T04:27:19.661Z,0.00
2019-03-25T04:28:18.696Z,0.00
2019-03-25T04:29:18.687Z,0.00
2019-03-25T04:30:18.653Z,0.00
2019-03-25T04:31:18.665Z,0.00
2019-03-25T04:32:18.612Z,4.00
2019-03-25T04:33:18.700Z,4.00
2019-03-25T04:34:18.624Z,0.00
2019-03-25T04:35:18.608Z,4.00
2019-03-25T04:36:18.568Z,4.00
2019-03-25T04:37:18.573Z,0.00
2019-03-25T04:38:18.565Z,4.00
2019-03-25T04:39:18.536Z,4.00
2019-03-25T04:40:18.550Z,8.00
2019-03-25T04:41:18.546Z,8.00
2019-03-25T04:42:18.585Z,4.00
2019-03-25T04:43:18.503Z,8.00
2019-03-25T04:44:18.476Z,12.00
2019-03-25T04:45:18.497Z,12.00
2019-03-25T04:46:18.478Z,16.00
2019-03-25T04:47:18.439Z,16.00
2019-03-25T04:48:18.429Z,20.00
2019-03-25T04:49:18.415Z,24.00
2019-03-25T04:50:18.842Z,28.00
2019-03-25T04:51:18.398Z,28.00
2019-03-25T04:52:18.404Z,28.00
2019-03-25T04:53:18.362Z,24.00
2019-03-25T04:54:18.406Z,24.00
2019-03-25T04:55:18.353Z,28.00
2019-03-25T04:56:18.342Z,28.00
2019-03-25T04:57:18.331Z,28.00
2019-03-25T04:58:18.320Z,36.00
2019-03-25T04:59:18.303Z,36.00
2019-03-25T05:00:18.285Z,44.00
2019-03-25T05:01:18.606Z,40.00
2019-03-25T05:02:18.307Z,44.00
2019-03-25T05:03:18.315Z,48.00
2019-03-25T05:04:18.583Z,56.00
2019-03-25T05:05:18.246Z,64.00
2019-03-25T05:06:18.258Z,84.00
2019-03-25T05:07:18.258Z,112.00
2019-03-25T05:08:18.266Z,128.00
2019-03-25T05:09:18.211Z,144.00
2019-03-25T05:10:18.175Z,164.00
2019-03-25T05:11:18.195Z,176.00
2019-03-25T05:12:18.155Z,180.00
2019-03-25T05:13:18.173Z,188.00
2019-03-25T05:14:18.143Z,200.00
2019-03-25T05:15:18.110Z,208.00
2019-03-25T05:16:18.693Z,216.00
2019-03-25T05:17:18.106Z,216.00
2019-03-25T05:18:18.103Z,216.00
2019-03-25T05:19:18.068Z,208.00
2019-03-25T05:20:18.058Z,224.00
2019-03-25T05:21:18.062Z,252.00
2019-03-25T05:22:18.045Z,312.00
2019-03-25T05:23:18.070Z,352.00
2019-03-25T05:24:18.007Z,360.00
2019-03-25T05:25:18.006Z,368.00
2019-03-25T05:26:17.993Z,500.00
2019-03-25T05:27:18.005Z,580.00
2019-03-25T05:28:18.012Z,548.00
2019-03-25T05:29:17.975Z,508.00
2019-03-25T05:30:17.947Z,572.00
2019-03-25T05:31:17.943Z,664.00
2019-03-25T05:32:17.914Z,784.00
2019-03-25T05:33:17.905Z,872.00
2019-03-25T05:34:17.899Z,904.00
2019-03-25T05:35:17.881Z,808.00
2019-03-25T05:36:17.903Z,700.00
2019-03-25T05:37:17.928Z,688.00
2019-03-25T05:38:17.850Z,576.00
2019-03-25T05:39:17.834Z,472.00
2019-03-25T05:40:17.903Z,456.00
2019-03-25T05:41:17.840Z,416.00
2019-03-25T05:42:17.825Z,356.00
2019-03-25T05:43:17.791Z,284.00
2019-03-25T05:44:17.801Z,200.00
2019-03-25T05:45:17.813Z,196.00
2019-03-25T05:46:17.781Z,160.00
2019-03-25T05:47:17.792Z,96.00
2019-03-25T05:48:17.735Z,76.00
2019-03-25T05:49:17.741Z,92.00
2019-03-25T05:50:17.734Z,140.00
2019-03-25T05:51:17.705Z,168.00
2019-03-25T05:52:26.879Z,180.00
2019-03-25T05:53:17.686Z,196.00
2019-03-25T05:54:17.662Z,224.00
2019-03-25T05:55:17.757Z,240.00
2019-03-25T05:56:17.642Z,332.00
2019-03-25T05:57:17.650Z,376.00
2019-03-25T05:58:17.639Z,424.00
2019-03-25T05:59:17.609Z,492.00
2019-03-25T06:00:17.613Z,512.00
2019-03-25T06:01:17.612Z,556.00
2019-03-25T06:02:17.601Z,624.00
2019-03-25T06:03:17.677Z,656.00
2019-03-25T06:04:17.559Z,700.00
2019-03-25T06:05:17.634Z,680.00
2019-03-25T06:06:17.535Z,668.00
2019-03-25T06:07:17.540Z,656.00
2019-03-25T06:08:17.930Z,596.00
2019-03-25T06:09:17.550Z,532.00
2019-03-25T06:10:17.520Z,436.00
2019-03-25T06:11:17.477Z,400.00
2019-03-25T06:12:17.530Z,332.00
2019-03-25T06:13:17.459Z,268.00
2019-03-25T06:14:17.518Z,264.00
2019-03-25T06:15:17.461Z,260.00
2019-03-25T06:16:17.421Z,264.00
2019-03-25T06:17:17.428Z,268.00
2019-03-25T06:18:17.436Z,280.00
2019-03-25T06:19:17.392Z,248.00
2019-03-25T06:20:17.405Z,320.00
2019-03-25T06:21:17.429Z,324.00
2019-03-25T06:22:17.602Z,304.00
2019-03-25T06:23:17.344Z,320.00
2019-03-25T06:24:17.335Z,316.00
2019-03-25T06:25:17.326Z,352.00
2019-03-25T06:26:17.310Z,276.00
2019-03-25T06:27:17.325Z,340.00
2019-03-25T06:28:17.300Z,364.00
2019-03-25T06:29:17.284Z,408.00
2019-03-25T06:30:17.267Z,340.00
2019-03-25T06:31:17.303Z,352.00
2019-03-25T06:32:17.268Z,320.00
2019-03-25T06:33:17.256Z,316.00
2019-03-25T06:34:17.229Z,320.00
2019-03-25T06:35:17.243Z,332.00
2019-03-25T06:36:17.200Z,300.00
2019-03-25T06:37:17.207Z,280.00
2019-03-25T06:38:17.186Z,360.00
2019-03-25T06:39:17.169Z,428.00
2019-03-25T06:40:17.269Z,452.00
2019-03-25T06:41:17.146Z,416.00
2019-03-25T06:42:17.136Z,460.00
2019-03-25T06:43:17.326Z,540.00
2019-03-25T06:44:17.121Z,568.00
2019-03-25T06:45:17.102Z,628.00
2019-03-25T06:46:17.181Z,564.00
2019-03-25T06:47:17.088Z,552.00
2019-03-25T06:48:17.236Z,564.00
2019-03-25T06:49:17.068Z,712.00
2019-03-25T06:50:17.062Z,676.00
2019-03-25T06:51:17.047Z,692.00
2019-03-25T06:52:17.025Z,740.00
2019-03-25T06:53:17.047Z,884.00
2019-03-25T06:54:18.829Z,780.00
2019-03-25T06:55:18.037Z,656.00
2019-03-25T06:56:17.084Z,632.00
2019-03-25T06:57:25.185Z,572.00
2019-03-25T06:58:18.082Z,584.00
2019-03-25T06:59:17.157Z,572.00
2019-03-25T07:00:16.945Z,520.00
2019-03-25T07:01:17.098Z,576.00
2019-03-25T07:02:16.985Z,648.00
2019-03-25T07:03:16.897Z,656.00
2019-03-25T07:04:16.900Z,820.00
2019-03-25T07:05:16.875Z,864.00
2019-03-25T07:06:16.869Z,972.00
2019-03-25T07:07:16.884Z,836.00
2019-03-25T07:08:16.842Z,976.00
2019-03-25T07:09:18.737Z,892.00
2019-03-25T07:10:16.824Z,1120.00
2019-03-25T07:11:16.818Z,1164.00
2019-03-25T07:12:16.801Z,1304.00
2019-03-25T07:13:16.784Z,1268.00
2019-03-25T07:14:16.790Z,1116.00
2019-03-25T07:15:16.769Z,1152.00
2019-03-25T07:16:16.758Z,1208.00
2019-03-25T07:17:16.766Z,940.00
2019-03-25T07:18:16.753Z,1096.00
2019-03-25T07:19:16.774Z,1252.00
2019-03-25T07:20:16.712Z,1352.00
2019-03-25T07:21:16.702Z,1616.00
2019-03-25T07:22:16.714Z,1548.00
2019-03-25T07:23:16.708Z,1312.00
2019-03-25T07:24:16.728Z,1296.00
2019-03-25T07:25:16.649Z,1160.00
2019-03-25T07:26:16.642Z,1468.00
2019-03-25T07:27:16.631Z,2096.00
2019-03-25T07:28:16.628Z,2404.00
2019-03-25T07:29:16.648Z,2376.00
2019-03-25T07:30:16.598Z,2176.00
2019-03-25T07:31:16.587Z,1980.00
2019-03-25T07:32:16.576Z,1680.00
2019-03-25T07:33:16.643Z,1744.00
2019-03-25T07:34:16.571Z,2476.00
2019-03-25T07:35:16.573Z,2344.00
2019-03-25T07:36:16.527Z,2236.00
2019-03-25T07:37:16.518Z,2080.00
2019-03-25T07:38:16.515Z,2224.00
2019-03-25T07:39:16.507Z,1964.00
2019-03-25T07:40:16.514Z,2020.00
2019-03-25T07:41:17.192Z,2056.00
2019-03-25T07:42:16.465Z,2212.00
2019-03-25T07:43:16.449Z,1808.00
2019-03-25T07:44:16.466Z,1772.00
2019-03-25T07:45:16.457Z,1444.00
2019-03-25T07:46:16.484Z,1584.00
2019-03-25T07:47:16.406Z,1628.00
2019-03-25T07:48:16.392Z,1500.00
2019-03-25T07:49:16.461Z,1972.00
2019-03-25T07:50:16.379Z,1860.00
2019-03-25T07:51:16.369Z,2172.00
2019-03-25T07:52:16.388Z,2644.00
2019-03-25T07:53:16.339Z,3464.00
2019-03-25T07:54:16.409Z,3000.00
2019-03-25T07:55:16.866Z,3056.00
2019-03-25T07:56:16.321Z,3980.00
2019-03-25T07:57:16.311Z,4292.00
2019-03-25T07:58:16.310Z,4508.00
2019-03-25T07:59:18.141Z,3512.00
2019-03-25T08:00:16.273Z,3808.00
2019-03-25T08:01:16.271Z,3804.00
2019-03-25T08:02:16.282Z,2708.00
2019-03-25T08:03:16.232Z,2500.00
2019-03-25T08:04:16.221Z,2504.00
2019-03-25T08:05:16.232Z,2592.00
2019-03-25T08:06:16.223Z,2596.00
2019-03-25T08:07:16.200Z,2304.00
2019-03-25T08:08:16.208Z,2188.00
2019-03-25T08:09:16.200Z,1836.00
2019-03-25T08:10:16.185Z,1660.00
2019-03-25T08:11:16.160Z,2056.00
2019-03-25T08:12:16.139Z,1764.00
2019-03-25T08:13:16.179Z,1756.00
2019-03-25T08:14:16.172Z,1768.00
2019-03-25T08:15:16.131Z,1896.00
2019-03-25T08:16:16.095Z,2012.00
2019-03-25T08:17:16.070Z,2184.00
2019-03-25T08:18:16.079Z,1624.00
2019-03-25T08:19:16.065Z,1860.00
2019-03-25T08:20:16.202Z,2024.00
2019-03-25T08:21:16.028Z,2248.00
2019-03-25T08:22:16.022Z,1932.00
2019-03-25T08:23:16.030Z,1612.00
2019-03-25T08:24:16.016Z,1688.00
2019-03-25T08:25:16.012Z,2364.00
2019-03-25T08:26:16.002Z,2316.00
2019-03-25T08:27:15.963Z,2620.00
2019-03-25T08:28:15.952Z,2168.00
2019-03-25T08:29:15.942Z,2144.00
2019-03-25T08:30:15.948Z,2716.00
2019-03-25T08:31:15.922Z,3136.00
2019-03-25T08:32:15.905Z,3240.00
2019-03-25T08:33:15.899Z,3700.00
2019-03-25T08:34:15.898Z,2220.00
2019-03-25T08:35:15.890Z,2248.00
2019-03-25T08:36:15.877Z,1944.00
2019-03-25T08:37:15.851Z,2096.00
2019-03-25T08:38:15.860Z,1992.00
2019-03-25T08:39:15.836Z,2000.00
2019-03-25T08:40:15.850Z,2156.00
2019-03-25T08:41:15.954Z,1808.00
2019-03-25T08:42:15.804Z,2312.00
2019-03-25T08:43:15.790Z,2080.00
2019-03-25T08:44:15.775Z,2728.00
2019-03-25T08:45:15.775Z,3060.00
2019-03-25T08:46:15.759Z,3844.00
2019-03-25T08:47:15.740Z,4560.00
2019-03-25T08:48:15.792Z,4772.00
2019-03-25T08:49:15.732Z,5060.00
2019-03-25T08:50:15.824Z,5872.00
2019-03-25T08:51:15.719Z,6324.00
2019-03-25T08:52:15.709Z,6208.00
2019-03-25T08:53:15.678Z,5804.00
2019-03-25T08:54:15.681Z,4828.00
2019-03-25T08:55:15.792Z,5256.00
2019-03-25T08:56:15.644Z,3340.00
2019-03-25T08:57:15.632Z,3244.00
2019-03-25T08:58:15.616Z,2408.00
2019-03-25T08:59:15.609Z,2720.00
2019-03-25T09:00:15.603Z,2464.00
2019-03-25T09:01:15.649Z,2316.00
2019-03-25T09:02:15.633Z,3412.00
2019-03-25T09:03:15.560Z,3272.00
2019-03-25T09:04:15.551Z,3576.00
2019-03-25T09:05:15.564Z,4016.00
2019-03-25T09:06:15.555Z,4316.00
2019-03-25T09:07:15.514Z,2720.00
2019-03-25T09:08:15.509Z,3360.00
2019-03-25T09:09:15.631Z,3488.00
2019-03-25T09:10:15.487Z,3076.00
2019-03-25T09:11:15.519Z,3876.00
2019-03-25T09:12:15.495Z,4808.00
2019-03-25T09:13:15.447Z,4820.00
2019-03-25T09:14:15.535Z,5220.00
2019-03-25T09:15:15.547Z,5256.00
2019-03-25T09:16:15.429Z,5128.00
2019-03-25T09:17:15.432Z,6264.00
2019-03-25T09:18:15.404Z,6380.00
2019-03-25T09:19:15.388Z,5084.00
2019-03-25T09:20:15.373Z,5940.00
2019-03-25T09:21:15.392Z,6552.00
2019-03-25T09:22:15.359Z,7408.00
2019-03-25T09:23:15.336Z,7956.00
2019-03-25T09:24:15.322Z,8168.00
2019-03-25T09:25:15.315Z,8028.00
2019-03-25T09:26:16.356Z,7752.00
2019-03-25T09:27:15.289Z,7572.00
2019-03-25T09:28:24.153Z,7300.00
2019-03-25T09:29:16.264Z,6480.00
2019-03-25T09:30:15.255Z,6092.00
2019-03-25T09:31:15.262Z,6392.00
2019-03-25T09:32:15.363Z,6540.00
2019-03-25T09:33:15.304Z,7180.00
2019-03-25T09:34:15.223Z,7848.00
2019-03-25T09:35:15.247Z,8384.00
2019-03-25T09:36:15.188Z,8984.00
2019-03-25T09:37:15.322Z,8984.00
2019-03-25T09:38:15.171Z,8676.00
2019-03-25T09:39:15.169Z,8448.00
2019-03-25T09:40:15.214Z,8680.00
2019-03-25T09:41:15.133Z,8172.00
2019-03-25T09:42:15.117Z,7840.00
2019-03-25T09:43:15.131Z,8812.00
2019-03-25T09:44:15.104Z,7408.00
2019-03-25T09:45:15.125Z,8760.00
2019-03-25T09:46:15.084Z,7980.00
2019-03-25T09:47:15.062Z,7536.00
2019-03-25T09:48:15.055Z,6368.00
2019-03-25T09:49:15.041Z,5948.00
2019-03-25T09:50:15.167Z,7572.00
2019-03-25T09:51:15.029Z,7140.00
2019-03-25T09:52:15.006Z,6560.00
2019-03-25T09:53:14.998Z,5372.00
2019-03-25T09:54:14.989Z,3880.00
2019-03-25T09:55:16.629Z,3328.00
2019-03-25T09:56:14.975Z,2808.00
2019-03-25T09:57:14.953Z,2844.00
2019-03-25T09:58:14.941Z,2412.00
2019-03-25T09:59:14.937Z,3152.00
2019-03-25T10:00:14.922Z,3396.00
2019-03-25T10:01:14.933Z,3572.00
2019-03-25T10:02:14.928Z,3244.00
2019-03-25T10:03:14.883Z,3796.00
2019-03-25T10:04:14.931Z,3908.00
2019-03-25T10:05:15.474Z,4396.00
2019-03-25T10:06:15.001Z,5360.00
2019-03-25T10:07:14.887Z,5800.00
2019-03-25T10:08:14.846Z,7376.00
2019-03-25T10:09:14.813Z,7640.00
2019-03-25T10:10:14.810Z,8052.00
2019-03-25T10:11:14.806Z,7712.00
2019-03-25T10:12:14.936Z,8444.00
2019-03-25T10:13:14.808Z,8740.00
2019-03-25T10:14:14.764Z,8972.00
2019-03-25T10:15:15.347Z,8956.00
2019-03-25T10:16:14.750Z,8152.00
2019-03-25T10:17:14.761Z,7012.00
2019-03-25T10:18:14.726Z,5360.00
2019-03-25T10:19:14.732Z,5632.00
2019-03-25T10:20:14.761Z,4684.00
2019-03-25T10:21:14.695Z,4152.00
2019-03-25T10:22:14.679Z,3992.00
2019-03-25T10:23:14.666Z,4120.00
2019-03-25T10:24:14.689Z,4288.00
2019-03-25T10:25:14.635Z,5400.00
2019-03-25T10:26:14.768Z,6652.00
2019-03-25T10:27:14.621Z,7368.00
2019-03-25T10:28:14.636Z,6652.00
2019-03-25T10:29:14.591Z,7040.00
2019-03-25T10:30:14.598Z,7704.00
2019-03-25T10:31:17.243Z,8580.00
2019-03-25T10:32:14.577Z,9344.00
2019-03-25T10:33:14.555Z,8784.00
2019-03-25T10:34:14.555Z,9104.00
2019-03-25T10:35:14.528Z,8968.00
2019-03-25T10:36:14.569Z,8576.00
2019-03-25T10:37:14.508Z,8196.00
2019-03-25T10:38:19.519Z,6648.00
2019-03-25T10:39:15.614Z,5936.00
2019-03-25T10:40:14.486Z,5532.00
2019-03-25T10:41:14.493Z,5204.00
2019-03-25T10:42:14.824Z,4832.00
2019-03-25T10:43:14.561Z,4932.00
2019-03-25T10:44:14.428Z,5016.00
2019-03-25T10:45:14.420Z,4832.00
2019-03-25T10:46:14.408Z,4776.00
2019-03-25T10:47:14.872Z,4604.00
2019-03-25T10:48:14.378Z,4632.00
2019-03-25T10:49:16.190Z,4728.00
2019-03-25T10:50:14.385Z,4676.00
2019-03-25T10:51:14.344Z,4664.00
2019-03-25T10:52:14.352Z,4976.00
2019-03-25T10:53:14.480Z,4948.00
2019-03-25T10:54:14.326Z,5324.00
2019-03-25T10:55:14.296Z,5408.00
2019-03-25T10:56:14.336Z,5244.00
2019-03-25T10:57:14.377Z,5868.00
2019-03-25T10:58:14.284Z,7540.00
2019-03-25T10:59:14.254Z,6932.00
2019-03-25T11:00:14.247Z,5848.00
2019-03-25T11:01:14.227Z,6684.00
2019-03-25T11:02:14.219Z,8620.00
2019-03-25T11:03:14.231Z,8976.00
2019-03-25T11:04:14.929Z,9292.00
2019-03-25T11:05:14.192Z,9452.00
2019-03-25T11:06:14.173Z,8828.00
2019-03-25T11:07:14.236Z,7472.00
2019-03-25T11:08:14.168Z,6888.00
2019-03-25T11:09:14.179Z,6224.00
2019-03-25T11:10:14.131Z,5288.00
2019-03-25T11:11:14.183Z,4972.00
2019-03-25T11:12:14.159Z,4256.00
2019-03-25T11:13:14.095Z,4072.00
2019-03-25T11:14:14.092Z,4656.00
2019-03-25T11:15:14.091Z,7496.00
2019-03-25T11:16:14.129Z,7172.00
2019-03-25T11:17:14.092Z,6992.00
2019-03-25T11:18:14.065Z,6888.00
2019-03-25T11:19:14.055Z,8820.00
2019-03-25T11:20:14.069Z,9852.00
2019-03-25T11:21:14.026Z,10036.00
2019-03-25T11:22:13.993Z,8172.00
2019-03-25T11:23:13.991Z,8556.00
2019-03-25T11:24:15.226Z,9092.00
2019-03-25T11:25:14.127Z,9936.00
2019-03-25T11:26:13.960Z,9556.00
2019-03-25T11:27:13.939Z,8596.00
2019-03-25T11:28:13.954Z,8320.00
2019-03-25T11:29:13.919Z,6808.00
2019-03-25T11:30:13.915Z,5496.00
2019-03-25T11:31:13.914Z,4288.00
2019-03-25T11:32:13.902Z,3240.00
2019-03-25T11:33:13.880Z,3220.00
2019-03-25T11:34:13.862Z,3104.00
2019-03-25T11:35:13.846Z,2908.00
2019-03-25T11:36:13.859Z,2984.00
2019-03-25T11:37:13.843Z,3052.00
2019-03-25T11:38:13.837Z,2804.00
2019-03-25T11:39:13.803Z,2544.00
2019-03-25T11:40:13.797Z,2516.00
2019-03-25T11:41:13.818Z,2484.00
2019-03-25T11:42:13.830Z,2580.00
2019-03-25T11:43:13.774Z,2724.00
2019-03-25T11:44:13.770Z,2984.00
2019-03-25T11:45:13.739Z,3380.00
2019-03-25T11:46:13.729Z,3776.00
2019-03-25T11:47:13.732Z,5452.00
2019-03-25T11:48:13.704Z,5736.00
2019-03-25T11:49:13.711Z,4472.00
2019-03-25T11:50:13.722Z,3656.00
2019-03-25T11:51:13.672Z,3872.00
2019-03-25T11:52:13.662Z,3712.00
2019-03-25T11:53:13.656Z,3944.00
2019-03-25T11:54:13.663Z,4824.00
2019-03-25T11:55:13.656Z,5412.00
2019-03-25T11:56:13.614Z,6156.00
2019-03-25T11:57:13.610Z,6244.00
2019-03-25T11:58:13.588Z,6084.00
2019-03-25T11:59:18.531Z,6868.00
2019-03-25T12:00:14.566Z,6680.00
2019-03-25T12:01:13.557Z,5548.00
2019-03-25T12:02:17.429Z,4936.00
2019-03-25T12:03:13.539Z,4172.00
2019-03-25T12:04:13.556Z,3464.00
2019-03-25T12:05:13.512Z,3084.00
2019-03-25T12:06:13.526Z,2788.00
2019-03-25T12:07:13.487Z,3148.00
2019-03-25T12:08:13.480Z,3728.00
2019-03-25T12:09:13.699Z,3860.00
2019-03-25T12:10:13.477Z,2560.00
2019-03-25T12:11:13.457Z,2428.00
2019-03-25T12:12:13.488Z,2784.00
2019-03-25T12:13:13.462Z,2932.00
2019-03-25T12:14:13.429Z,2824.00
2019-03-25T12:15:13.415Z,2648.00
2019-03-25T12:16:13.413Z,3332.00
2019-03-25T12:17:13.428Z,3412.00
2019-03-25T12:18:13.367Z,3788.00
2019-03-25T12:19:13.367Z,4652.00
2019-03-25T12:20:13.345Z,5284.00
2019-03-25T12:21:13.349Z,6308.00
2019-03-25T12:22:13.335Z,6620.00
2019-03-25T12:23:13.331Z,7680.00
2019-03-25T12:24:13.311Z,7636.00
2019-03-25T12:25:13.316Z,7800.00
2019-03-25T12:26:13.281Z,7620.00
2019-03-25T12:27:13.310Z,7872.00
2019-03-25T12:28:13.262Z,6212.00
2019-03-25T12:29:13.270Z,6144.00
2019-03-25T12:30:13.231Z,6084.00
2019-03-25T12:31:13.218Z,5956.00
2019-03-25T12:32:13.212Z,5668.00
2019-03-25T12:33:13.225Z,4968.00
2019-03-25T12:34:13.260Z,4380.00
2019-03-25T12:35:13.209Z,4044.00
2019-03-25T12:36:13.253Z,4400.00
2019-03-25T12:37:13.490Z,4092.00
2019-03-25T12:38:13.178Z,3580.00
2019-03-25T12:39:13.190Z,3284.00
2019-03-25T12:40:13.139Z,3148.00
2019-03-25T12:41:13.108Z,2984.00
2019-03-25T12:42:13.096Z,3276.00